Time;durP1;ratioP1;P1;durP2;ratioP2;P2;SDS_P1;SDS_P2;PMS_P1;PMS_P2;Temp;Humidity;BMP_temperature;BMP_pressure;BME280_temperature;BME280_humidity;BME280_pressure;Samples;Min_cycle;Max_cycle;Signal;HPM_P1;HPM_P2
2021/03/02 00:00:24;;;;;;;22.70;14.55;;;;;;;1.30;71.74;95943.58;1845715;77;21480;-54
2021/03/02 00:02:52;;;;;;;40.40;22.07;;;;;;;1.24;71.64;95940.16;1845637;77;21067;-54
2021/03/02 00:05:20;;;;;;;39.23;25.62;;;;;;;1.12;71.81;95943.81;1798608;79;21199;-55
2021/03/02 00:07:49;;;;;;;46.25;27.95;;;;;;;1.00;71.97;95942.59;1845507;77;21203;-56
2021/03/02 00:10:18;;;;;;;66.82;31.07;;;;;;;0.99;72.23;95945.09;1845636;77;21048;-55
2021/03/02 00:12:46;;;;;;;68.85;32.67;;;;;;;1.05;72.07;95942.33;1845625;77;21112;-55
2021/03/02 00:15:16;;;;;;;40.88;25.37;;;;;;;1.09;72.06;95943.73;1845603;77;21107;-55
2021/03/02 00:17:55;;;;;;;30.37;19.00;;;;;;;1.16;71.84;95937.89;1769959;79;22113;-55
2021/03/02 00:20:24;;;;;;;35.20;20.82;;;;;;;1.20;71.66;95938.77;1845593;77;21056;-55
2021/03/02 00:23:23;;;;;;;30.90;18.48;;;;;;;1.16;71.11;95941.95;1845712;77;21082;-55
2021/03/02 00:25:57;;;;;;;27.48;16.67;;;;;;;1.07;71.54;95948.17;1845589;77;21051;-55
2021/03/02 00:28:26;;;;;;;30.17;18.07;;;;;;;1.03;71.64;95941.91;1845581;77;21182;-54
2021/03/02 00:30:55;;;;;;;40.63;24.47;;;;;;;1.08;71.43;95946.23;1798507;79;21200;-55
2021/03/02 00:33:23;;;;;;;44.42;26.42;;;;;;;1.12;71.17;95938.39;1845590;77;21064;-54
2021/03/02 00:35:53;;;;;;;41.02;24.35;;;;;;;1.19;71.01;95942.62;1845589;77;21178;-55
2021/03/02 00:38:22;;;;;;;24.65;16.93;;;;;;;1.22;70.62;95939.19;1845466;77;21068;-55
2021/03/02 00:40:51;;;;;;;28.60;18.10;;;;;;;1.20;70.28;95941.47;1845561;77;21056;-58
2021/03/02 00:43:19;;;;;;;21.77;16.12;;;;;;;1.07;70.39;95936.54;1798522;79;21209;-55
2021/03/02 00:45:49;;;;;;;22.62;15.98;;;;;;;0.99;70.79;95938.32;1845576;77;21076;-56
2021/03/02 00:48:18;;;;;;;23.95;15.93;;;;;;;0.97;70.89;95938.48;1845622;77;21528;-55
2021/03/02 00:50:47;;;;;;;24.57;16.30;;;;;;;0.96;71.04;95937.69;1798492;79;21150;-54
2021/03/02 00:53:15;;;;;;;36.93;21.33;;;;;;;0.96;71.11;95939.04;1845574;77;21126;-56
2021/03/02 00:55:43;;;;;;;23.62;15.85;;;;;;;0.91;71.33;95933.12;1798462;79;21424;-55
2021/03/02 00:58:12;;;;;;;24.65;16.75;;;;;;;0.87;71.40;95935.78;1845606;77;21072;-56
2021/03/02 01:00:40;;;;;;;33.73;19.30;;;;;;;0.79;71.30;95931.34;1798451;79;21064;-55
2021/03/02 01:03:11;;;;;;;35.90;20.52;;;;;;;0.74;71.53;95932.98;1845603;77;21080;-56
2021/03/02 01:05:40;;;;;;;26.02;17.07;;;;;;;0.66;71.33;95931.28;1798518;79;21105;-55
2021/03/02 01:08:10;;;;;;;23.70;16.45;;;;;;;0.59;71.66;95926.28;1845288;77;21503;-55
2021/03/02 01:10:40;;;;;;;24.18;16.87;;;;;;;0.64;71.97;95924.09;1798425;79;21018;-54
2021/03/02 01:13:10;;;;;;;22.00;16.02;;;;;;;0.64;71.54;95926.80;1816190;77;21076;-55
2021/03/02 01:15:38;;;;;;;26.50;17.02;;;;;;;0.64;71.54;95918.67;1845484;77;21056;-55
2021/03/02 01:18:08;;;;;;;21.35;15.23;;;;;;;0.68;71.30;95929.00;1845577;77;21092;-55
2021/03/02 01:20:37;;;;;;;23.42;15.78;;;;;;;0.75;71.28;95915.59;1798428;79;21281;-54
2021/03/02 01:23:06;;;;;;;21.62;14.85;;;;;;;0.82;70.87;95919.81;1845483;77;21091;-54
2021/03/02 01:25:34;;;;;;;20.92;15.23;;;;;;;0.81;70.73;95915.52;1845585;77;21112;-55
2021/03/02 01:28:04;;;;;;;23.15;15.75;;;;;;;0.81;70.82;95907.39;1845556;77;21040;-54
2021/03/02 01:30:32;;;;;;;29.18;19.40;;;;;;;0.81;70.82;95912.80;1845681;77;21476;-56
2021/03/02 01:33:01;;;;;;;30.02;17.40;;;;;;;0.86;71.11;95915.25;1845566;77;22341;-56
2021/03/02 01:35:30;;;;;;;28.98;16.25;;;;;;;0.92;70.57;95909.75;1845397;77;21072;-55
2021/03/02 01:37:58;;;;;;;33.65;20.80;;;;;;;0.90;70.56;95906.62;1796626;79;21055;-55
2021/03/02 01:40:27;;;;;;;46.13;24.27;;;;;;;0.93;70.32;95898.36;1839617;78;21120;-55
2021/03/02 01:42:55;;;;;;;102.22;50.30;;;;;;;0.87;70.34;95900.56;1795384;80;21151;-55
2021/03/02 01:45:24;;;;;;;44.03;25.32;;;;;;;0.79;70.43;95901.55;1839584;78;22031;-54
2021/03/02 01:47:52;;;;;;;35.17;19.48;;;;;;;0.71;70.18;95900.41;1795269;80;21162;-54
2021/03/02 01:50:22;;;;;;;41.28;22.58;;;;;;;0.65;70.33;95900.48;1839622;78;21067;-55
2021/03/02 01:52:51;;;;;;;42.13;23.60;;;;;;;0.64;70.25;95892.95;1795339;80;21119;-55
2021/03/02 01:55:19;;;;;;;31.10;21.00;;;;;;;0.60;70.03;95889.95;1839568;78;21083;-55
2021/03/02 01:57:48;;;;;;;28.90;17.30;;;;;;;0.57;70.13;95887.38;1795376;80;21380;-54
2021/03/02 02:00:29;;;;;;;20.55;14.45;;;;;;;0.57;70.02;95891.43;1811962;78;21124;-55
2021/03/02 02:03:05;;;;;;;22.90;13.10;;;;;;;0.61;70.03;95891.52;1795387;80;21119;-56
2021/03/02 02:05:41;;;;;;;16.20;11.00;;;;;;;0.64;69.79;95894.30;1767789;80;21170;-54
2021/03/02 02:08:09;;;;;;;16.80;11.35;;;;;;;0.66;69.71;95892.02;1844418;77;21496;-55
2021/03/02 02:10:49;;;;;;;18.60;12.30;;;;;;;0.67;69.58;95892.23;1844899;77;21270;-54
2021/03/02 02:13:33;;;;;;;27.32;16.23;;;;;;;0.67;69.41;95888.17;1844887;77;21099;-54
2021/03/02 02:16:06;;;;;;;26.73;15.35;;;;;;;0.64;69.21;95887.53;1844919;77;21068;-55
2021/03/02 02:18:34;;;;;;;26.00;14.15;;;;;;;0.62;69.27;95882.25;1794988;80;21142;-55
2021/03/02 02:21:17;;;;;;;17.70;12.30;;;;;;;0.58;69.08;95882.17;1764837;80;21495;-53
2021/03/02 02:24:06;;;;;;;23.25;14.43;;;;;;;0.41;69.10;95873.11;1837021;78;23539;-54
2021/03/02 02:26:57;;;;;;;55.45;26.07;;;;;;;0.36;69.50;95875.31;1795326;80;21151;-55
2021/03/02 02:29:29;;;;;;;57.55;26.70;;;;;;;0.36;69.61;95873.40;1839550;78;21202;-55
2021/03/02 02:31:59;;;;;;;63.50;28.20;;;;;;;0.37;70.01;95869.55;1795333;80;21162;-55
2021/03/02 02:34:29;;;;;;;38.92;20.17;;;;;;;0.42;69.68;95871.97;1839625;78;21108;-55
2021/03/02 02:36:59;;;;;;;38.88;18.82;;;;;;;0.43;69.50;95870.06;1795367;80;22130;-55
2021/03/02 02:39:28;;;;;;;25.00;14.25;;;;;;;0.40;69.18;95870.19;1839630;78;21568;-55
2021/03/02 02:41:56;;;;;;;26.12;14.13;;;;;;;0.30;69.22;95880.79;1795311;80;21162;-54
2021/03/02 02:44:25;;;;;;;31.75;18.10;;;;;;;0.24;69.47;95882.22;1839584;78;21160;-55
2021/03/02 02:46:56;;;;;;;25.30;13.80;;;;;;;0.20;69.92;95874.59;1795450;80;21182;-54
2021/03/02 02:49:25;;;;;;;75.05;38.00;;;;;;;0.26;69.88;95874.53;1839546;78;21322;-55
2021/03/02 02:51:53;;;;;;;76.87;36.40;;;;;;;0.31;70.31;95881.00;1795288;80;21103;-54
2021/03/02 02:54:21;;;;;;;155.20;70.75;;;;;;;0.38;70.41;95880.59;1839528;78;21088;-54
2021/03/02 02:56:50;;;;;;;92.33;46.08;;;;;;;0.34;70.24;95882.45;1795502;80;21079;-55
2021/03/02 02:59:23;;;;;;;52.98;28.27;;;;;;;0.35;69.98;95880.50;1839911;78;21567;-54
2021/03/02 03:01:55;;;;;;;67.22;29.95;;;;;;;0.34;69.75;95887.86;1795618;80;21282;-55
2021/03/02 03:04:26;;;;;;;;;;;;;;;0.33;69.82;95883.59;1842457;78;21147;-55
2021/03/02 03:06:56;;;;;;;45.48;22.40;;;;;;;0.36;69.40;95882.88;1839777;78;20273;-55
2021/03/02 03:09:24;;;;;;;31.97;19.90;;;;;;;0.35;69.10;95886.72;1795451;80;21205;-55
2021/03/02 03:11:58;;;;;;;40.95;23.77;;;;;;;0.35;69.02;95889.42;1839777;78;21052;-55
2021/03/02 03:14:28;;;;;;;23.27;16.00;;;;;;;0.40;69.15;95894.55;1792093;80;21211;-55
2021/03/02 03:16:56;;;;;;;26.27;15.55;;;;;;;0.37;68.68;95893.91;1839692;78;21095;-55
2021/03/02 03:19:26;;;;;;;36.20;20.10;;;;;;;0.26;69.03;95878.00;1795478;80;21170;-55
2021/03/02 03:21:55;;;;;;;55.03;25.95;;;;;;;0.28;69.35;95893.34;1839735;78;21179;-54
2021/03/02 03:24:23;;;;;;;42.65;22.58;;;;;;;0.33;69.17;95886.84;1795593;80;21484;-55
2021/03/02 03:26:52;;;;;;;44.48;22.35;;;;;;;0.32;68.94;95890.14;1839853;78;22201;-53
2021/03/02 03:29:20;;;;;;;40.50;19.70;;;;;;;0.28;68.80;95883.88;1764871;80;21123;-55
2021/03/02 03:31:48;;;;;;;40.95;20.85;;;;;;;0.26;68.61;95882.64;1839712;78;21136;-55
2021/03/02 03:34:17;;;;;;;33.63;19.37;;;;;;;0.21;68.86;95890.46;1795429;80;21535;-54
2021/03/02 03:36:45;;;;;;;26.52;15.70;;;;;;;0.28;69.06;95897.41;1839686;78;21133;-55
2021/03/02 03:39:13;;;;;;;27.45;14.50;;;;;;;0.35;68.66;95896.74;1790687;79;22192;-55
2021/03/02 03:41:42;;;;;;;19.23;13.10;;;;;;;0.37;68.20;95894.49;1791218;80;21068;-55
2021/03/02 03:44:10;;;;;;;21.33;12.68;;;;;;;0.31;67.94;95892.63;1752929;80;21091;-56
2021/03/02 03:46:39;;;;;;;29.67;15.45;;;;;;;0.26;67.98;95896.94;1791327;80;21506;-54
2021/03/02 03:49:08;;;;;;;37.17;17.55;;;;;;;0.24;67.87;95888.40;1791321;80;21579;-55
2021/03/02 03:51:38;;;;;;;30.95;17.15;;;;;;;0.13;67.84;95888.75;1778771;80;21205;-54
2021/03/02 03:54:07;;;;;;;26.62;15.53;;;;;;;0.08;68.01;95890.36;1791243;80;21103;-55
2021/03/02 03:56:35;;;;;;;21.35;14.15;;;;;;;0.09;68.22;95893.86;1791347;80;21567;-54
2021/03/02 03:59:04;;;;;;;21.10;13.03;;;;;;;0.13;68.13;95884.69;1791312;80;21163;-54
2021/03/02 04:01:33;;;;;;;25.08;15.00;;;;;;;0.14;68.12;95880.84;1791275;80;21056;-54
2021/03/02 04:04:01;;;;;;;24.47;15.75;;;;;;;0.17;68.22;95887.45;1791341;80;22127;-55
2021/03/02 04:06:29;;;;;;;28.10;17.30;;;;;;;0.15;68.13;95895.94;1791184;80;21104;-55
2021/03/02 04:08:57;;;;;;;48.23;22.80;;;;;;;0.11;68.16;95882.11;1791258;80;21111;-55
2021/03/02 04:11:26;;;;;;;112.92;43.20;;;;;;;0.11;68.17;95878.86;1728467;80;21167;-55
2021/03/02 04:13:55;;;;;;;39.40;20.85;;;;;;;0.11;68.16;95878.86;1791286;80;21071;-54
2021/03/02 04:16:24;;;;;;;24.57;16.93;;;;;;;0.03;67.99;95879.05;1791201;80;21198;-55
2021/03/02 04:18:53;;;;;;;22.90;14.00;;;;;;;-0.07;68.39;95880.16;1791189;80;21103;-55
2021/03/02 04:21:21;;;;;;;52.93;27.22;;;;;;;-0.04;68.67;95878.87;1778848;80;21469;-55
2021/03/02 04:23:49;;;;;;;106.47;47.25;;;;;;;0.04;68.41;95875.97;1791179;80;21056;-55
2021/03/02 04:26:18;;;;;;;61.90;29.57;;;;;;;0.07;68.29;95873.14;1778802;80;21088;-55
2021/03/02 04:28:47;;;;;;;64.42;30.25;;;;;;;0.09;68.10;95864.91;1791233;80;21213;-56
2021/03/02 04:31:15;;;;;;;45.17;23.35;;;;;;;0.12;67.96;95866.89;1791189;80;21139;-55
2021/03/02 04:33:43;;;;;;;37.85;19.65;;;;;;;0.14;67.79;95867.32;1791326;80;21476;-55
2021/03/02 04:36:12;;;;;;;22.85;14.47;;;;;;;0.10;67.78;95862.41;1791126;80;21516;-55
2021/03/02 04:38:41;;;;;;;24.27;12.90;;;;;;;0.12;67.76;95861.48;1778776;80;21152;-55
2021/03/02 04:41:09;;;;;;;15.03;11.10;;;;;;;0.15;67.58;95863.48;1840404;77;21362;-54
2021/03/02 04:43:38;;;;;;;15.25;11.35;;;;;;;0.10;67.79;95863.77;1848233;77;21107;-55
2021/03/02 04:46:06;;;;;;;18.50;13.55;;;;;;;0.09;67.97;95856.78;1795492;80;21547;-55
2021/03/02 04:48:35;;;;;;;16.55;11.55;;;;;;;0.08;67.67;95856.54;1839636;78;21044;-54
2021/03/02 04:51:05;;;;;;;17.12;11.55;;;;;;;0.03;67.87;95862.81;1795418;80;21095;-54
2021/03/02 04:53:33;;;;;;;36.50;19.82;;;;;;;0.02;67.69;95851.79;1795448;80;21191;-55
2021/03/02 04:56:02;;;;;;;71.05;37.80;;;;;;;-0.04;67.74;95852.41;1839555;78;21512;-54
2021/03/02 04:58:30;;;;;;;27.00;19.95;;;;;;;-0.12;67.87;95858.22;1795483;80;21487;-55
2021/03/02 05:00:59;;;;;;;35.03;22.75;;;;;;;-0.21;68.02;95852.80;1839646;78;21067;-56
2021/03/02 05:03:27;;;;;;;29.87;20.50;;;;;;;-0.26;68.31;95850.36;1795395;80;21582;-55
2021/03/02 05:05:56;;;;;;;30.75;20.10;;;;;;;-0.27;68.65;95852.83;1839664;78;21312;-56
2021/03/02 05:08:25;;;;;;;26.65;17.75;;;;;;;-0.23;68.71;95857.19;1795333;80;21154;-55
2021/03/02 05:10:54;;;;;;;25.77;17.80;;;;;;;-0.25;68.69;95846.52;1839755;78;21044;-55
2021/03/02 05:13:23;;;;;;;54.10;28.85;;;;;;;-0.28;68.76;95847.20;1795391;80;21095;-56
2021/03/02 05:15:53;;;;;;;90.38;43.10;;;;;;;-0.24;68.86;95845.39;1835759;78;21088;-56
2021/03/02 05:18:21;;;;;;;40.90;25.48;;;;;;;-0.20;68.69;95853.77;1795382;80;21153;-56
2021/03/02 05:20:50;;;;;;;26.73;19.37;;;;;;;-0.19;68.60;95850.52;1839610;78;21060;-57
2021/03/02 05:23:18;;;;;;;26.15;17.50;;;;;;;-0.19;68.84;95850.52;1795509;80;21559;-57
2021/03/02 05:25:46;;;;;;;24.20;16.15;;;;;;;-0.17;68.98;95849.59;1795393;80;21151;-55
2021/03/02 05:28:15;;;;;;;28.70;18.37;;;;;;;-0.08;68.88;95846.14;1839729;78;21559;-56
2021/03/02 05:30:43;;;;;;;35.15;22.35;;;;;;;-0.03;68.75;95854.74;1795382;80;21137;-55
2021/03/02 05:33:12;;;;;;;34.50;22.30;;;;;;;0.03;68.46;95851.42;1839562;78;21092;-57
2021/03/02 05:35:41;;;;;;;24.27;17.98;;;;;;;0.08;68.25;95855.19;1795309;80;21066;-55
2021/03/02 05:38:09;;;;;;;37.93;26.07;;;;;;;0.08;68.47;95855.19;1839587;78;21044;-55
2021/03/02 05:40:40;;;;;;;55.67;32.65;;;;;;;0.17;68.55;95858.49;1787134;79;21115;-55
2021/03/02 05:43:09;;;;;;;45.63;27.73;;;;;;;0.22;68.33;95860.91;1791104;80;21199;-55
2021/03/02 05:45:37;;;;;;;55.05;34.08;;;;;;;0.17;68.15;95858.49;1791128;80;21135;-55
2021/03/02 05:48:09;;;;;;;54.98;37.40;;;;;;;0.15;68.37;95864.83;1778637;80;21135;-56
2021/03/02 05:50:37;;;;;;;50.92;34.00;;;;;;;0.12;68.22;95856.63;1791156;80;21123;-55
2021/03/02 05:53:06;;;;;;;51.53;34.63;;;;;;;0.11;68.24;95862.63;1778697;80;21112;-56
2021/03/02 05:55:36;;;;;;;73.83;46.77;;;;;;;0.07;68.73;95864.44;1791072;80;21367;-55
2021/03/02 05:58:05;;;;;;;84.25;52.03;;;;;;;0.11;68.92;95859.92;1791092;80;21178;-57
2021/03/02 06:00:33;;;;;;;64.27;40.85;;;;;;;0.15;68.99;95856.72;1791235;80;21079;-57
2021/03/02 06:03:02;;;;;;;63.42;37.55;;;;;;;0.21;69.27;95853.94;1791152;80;21052;-54
2021/03/02 06:05:31;;;;;;;69.00;39.08;;;;;;;0.29;69.25;95854.32;1791180;80;21480;-55
2021/03/02 06:07:59;;;;;;;66.40;40.98;;;;;;;0.32;69.09;95854.95;1791205;80;22268;-55
2021/03/02 06:10:31;;;;;;;78.90;46.48;;;;;;;0.36;69.21;95854.45;1778628;80;21191;-55
2021/03/02 06:13:01;;;;;;;66.25;42.83;;;;;;;0.42;69.27;95854.37;1791156;80;21091;-56
2021/03/02 06:15:30;;;;;;;57.60;37.73;;;;;;;0.41;69.18;95850.69;1778745;80;21401;-56
2021/03/02 06:18:12;;;;;;;71.65;43.33;;;;;;;0.41;69.56;95852.05;1789314;80;21060;-56
2021/03/02 06:20:41;;;;;;;74.90;45.20;;;;;;;0.46;69.23;95855.26;1760041;81;21210;-55
2021/03/02 06:23:31;;;;;;;78.62;44.67;;;;;;;0.52;69.18;95850.32;1772442;80;21524;-55
2021/03/02 06:26:14;;;;;;;83.22;47.43;;;;;;;0.50;69.17;95853.95;1767682;80;21426;-56
2021/03/02 06:28:43;;;;;;;;;;;;;;;0.46;69.46;95843.08;1762111;81;21085;-58
2021/03/02 06:31:38;;;;;;;59.75;37.33;;;;;;;0.62;69.81;95843.77;1759579;81;20591;-56
2021/03/02 06:34:19;;;;;;;57.13;36.17;;;;;;;0.74;69.50;95850.98;1759339;81;21447;-55
2021/03/02 06:36:58;;;;;;;57.20;32.98;;;;;;;0.82;69.29;95842.63;1759218;81;21615;-55
2021/03/02 06:39:42;;;;;;;50.88;32.20;;;;;;;0.85;69.30;95837.84;1759389;81;21204;-55
2021/03/02 06:42:21;;;;;;;50.08;30.97;;;;;;;0.93;69.22;95839.53;1813852;79;21077;-56
2021/03/02 06:44:54;;;;;;;74.27;41.35;;;;;;;0.97;69.27;95839.02;1814608;79;21553;-55
2021/03/02 06:47:39;;;;;;;80.57;46.55;;;;;;;0.98;69.21;95833.81;1795350;78;21193;-56
2021/03/02 06:50:17;;;;;;;61.33;36.77;;;;;;;0.99;69.41;95834.02;1791464;80;21071;-56
2021/03/02 06:52:46;;;;;;;69.67;42.15;;;;;;;1.05;69.41;95838.58;1795510;79;21186;-57
2021/03/02 06:55:20;;;;;;;68.55;42.45;;;;;;;1.06;69.48;95834.73;1805931;78;21171;-57
2021/03/02 06:57:50;;;;;;;78.78;44.98;;;;;;;1.12;69.55;95839.49;1782031;79;21120;-55
2021/03/02 07:00:34;;;;;;;75.42;42.55;;;;;;;1.20;69.51;95833.08;1795185;79;21192;-56
2021/03/02 07:03:04;;;;;;;62.10;36.33;;;;;;;1.23;69.43;95842.39;1799516;79;21213;-55
2021/03/02 07:05:33;;;;;;;69.55;39.48;;;;;;;1.26;69.44;95839.75;1772064;78;21170;-55
2021/03/02 07:08:01;;;;;;;50.05;30.20;;;;;;;1.28;69.46;95836.10;1823616;77;21171;-56
2021/03/02 07:10:30;;;;;;;50.40;29.30;;;;;;;1.34;69.44;95840.06;1818510;77;21332;-56
2021/03/02 07:12:59;;;;;;;47.50;27.70;;;;;;;1.39;69.25;95837.08;1821499;77;21797;-53
2021/03/02 07:15:35;;;;;;;58.05;33.73;;;;;;;1.43;69.40;95837.12;1727479;80;21577;-60
2021/03/02 07:18:03;;;;;;;53.65;31.50;;;;;;;1.54;69.24;95842.16;1785914;80;21067;-55
2021/03/02 07:20:33;;;;;;;57.90;31.90;;;;;;;1.64;69.16;95838.25;1804372;79;21095;-58
2021/03/02 07:23:02;;;;;;;76.22;39.95;;;;;;;1.80;69.04;95847.80;1767981;78;21203;-56
2021/03/02 07:25:36;;;;;;;72.72;39.38;;;;;;;1.90;68.91;95842.33;1814532;77;21402;-55
2021/03/02 07:28:05;;;;;;;66.35;36.65;;;;;;;2.07;68.64;95844.52;1836201;77;21655;-58
2021/03/02 07:30:35;;;;;;;52.93;31.48;;;;;;;2.18;68.50;95833.25;1816359;77;22213;-57
2021/03/02 07:33:03;;;;;;;54.20;29.42;;;;;;;2.28;68.24;95829.31;1821985;77;21136;-57
2021/03/02 07:35:32;;;;;;;36.68;25.37;;;;;;;2.41;68.04;95833.94;1817342;77;21151;-55
2021/03/02 07:38:19;;;;;;;43.28;26.77;;;;;;;2.52;68.01;95833.51;1822953;77;22294;-54
2021/03/02 07:40:53;;;;;;;50.45;28.70;;;;;;;2.64;67.93;95825.89;1816973;77;21574;-57
2021/03/02 07:43:32;;;;;;;54.33;30.30;;;;;;;2.79;67.48;95829.55;1776755;80;21171;-58
2021/03/02 07:46:23;;;;;;;38.63;23.77;;;;;;;2.95;67.34;95823.33;1758454;80;21130;-57
2021/03/02 07:48:52;;;;;;;54.50;32.23;;;;;;;3.11;66.54;95823.89;1760409;80;21622;-56
2021/03/02 07:51:22;;;;;;;41.83;26.30;;;;;;;3.23;66.28;95820.91;1756421;80;21359;-55
2021/03/02 07:53:52;;;;;;;43.25;27.48;;;;;;;3.41;66.25;95817.78;1734187;81;21135;-56
2021/03/02 07:56:22;;;;;;;46.45;29.15;;;;;;;3.50;66.06;95813.00;1765216;80;21642;-54
2021/03/02 07:59:14;;;;;;;54.58;32.67;;;;;;;3.63;65.75;95816.20;1774664;80;21529;-55
2021/03/02 08:01:44;;;;;;;50.05;30.50;;;;;;;3.65;65.58;95813.32;1758072;80;21637;-55
2021/03/02 08:04:25;;;;;;;69.55;39.78;;;;;;;3.68;65.41;95813.16;1768618;80;21204;-58
2021/03/02 08:06:56;;;;;;;53.42;31.87;;;;;;;3.74;65.30;95808.36;1764600;80;21182;-56
2021/03/02 08:09:30;;;;;;;41.42;25.00;;;;;;;3.78;65.05;95811.88;1736306;80;21210;-55
2021/03/02 08:12:31;;;;;;;37.20;25.50;;;;;;;3.87;64.97;95807.47;1771955;80;22249;-54
2021/03/02 08:15:12;;;;;;;30.08;21.62;;;;;;;3.95;64.87;95803.63;1756048;80;21631;-55
2021/03/02 08:17:42;;;;;;;37.25;23.73;;;;;;;4.13;64.32;95800.43;1757738;80;22278;-55
2021/03/02 08:20:11;;;;;;;30.50;20.55;;;;;;;4.29;64.29;95805.80;1764707;80;21202;-55
2021/03/02 08:22:45;;;;;;;27.52;18.65;;;;;;;4.37;64.27;95804.66;1766829;79;21186;-56
2021/03/02 08:25:30;;;;;;;25.77;18.20;;;;;;;4.45;63.88;95806.84;1768041;80;21210;-56
2021/03/02 08:28:00;;;;;;;23.52;16.77;;;;;;;4.65;63.97;95804.80;1767236;80;21449;-54
2021/03/02 08:30:34;;;;;;;23.92;16.67;;;;;;;4.79;63.70;95802.11;1770639;80;21378;-56
2021/03/02 08:33:07;;;;;;;25.23;17.27;;;;;;;4.83;63.62;95796.67;1761783;80;21230;-57
2021/03/02 08:35:39;;;;;;;27.02;18.35;;;;;;;4.86;63.56;95800.78;1734662;80;21178;-57
2021/03/02 08:38:11;;;;;;;24.37;16.40;;;;;;;4.92;63.24;95800.59;1765268;80;21690;-55
2021/03/02 08:40:42;;;;;;;21.62;15.58;;;;;;;5.04;63.24;95795.37;1766095;77;21147;-54
2021/03/02 08:43:22;;;;;;;27.13;18.80;;;;;;;5.14;62.92;95798.12;1769034;79;21211;-56
2021/03/02 08:45:56;;;;;;;22.17;17.27;;;;;;;5.20;62.70;95801.25;1835335;77;21206;-56
2021/03/02 08:48:34;;;;;;;23.05;16.90;;;;;;;5.28;62.53;95799.52;1802967;78;21187;-56
2021/03/02 08:51:05;;;;;;;21.17;15.98;;;;;;;5.35;62.28;95788.60;1799373;78;21191;-56
2021/03/02 08:53:43;;;;;;;24.60;16.80;;;;;;;5.38;62.42;95796.80;1823420;77;21107;-57
2021/03/02 08:56:17;;;;;;;25.48;16.50;;;;;;;5.45;62.15;95794.06;1817391;77;21533;-57
2021/03/02 08:59:04;;;;;;;19.67;14.13;;;;;;;5.65;61.99;95790.38;1884317;74;22355;-55
2021/03/02 09:01:37;;;;;;;18.80;14.07;;;;;;;5.71;62.10;95794.27;1755571;79;21182;-59
2021/03/02 09:04:19;;;;;;;28.45;17.57;;;;;;;5.83;61.74;95783.00;1880361;75;22715;-55
2021/03/02 09:06:52;;;;;;;25.50;17.15;;;;;;;5.83;61.77;95787.09;1815579;78;21641;-55
2021/03/02 09:09:24;;;;;;;23.22;16.52;;;;;;;5.94;61.58;95791.97;1817893;76;22220;-56
2021/03/02 09:11:54;;;;;;;;;;;;;;;6.12;61.38;95790.00;1828139;76;21179;-55
2021/03/02 09:14:30;;;;;;;20.62;14.73;;;;;;;6.32;61.06;95797.95;1820177;76;20300;-55
2021/03/02 09:17:02;;;;;;;24.27;15.88;;;;;;;6.42;61.43;95787.00;1825337;76;21488;-56
2021/03/02 09:19:41;;;;;;;44.67;18.80;;;;;;;6.55;61.07;95785.97;1829107;76;22122;-55
2021/03/02 09:22:16;;;;;;;24.37;17.40;;;;;;;6.66;60.66;95778.52;1834974;76;21451;-56
2021/03/02 09:24:56;;;;;;;22.35;15.38;;;;;;;6.85;60.09;95778.81;1827904;77;21208;-56
2021/03/02 09:27:39;;;;;;;21.75;12.80;;;;;;;7.18;60.25;95769.44;1879666;75;22480;-58
2021/03/02 09:30:10;;;;;;;21.03;14.87;;;;;;;7.52;59.12;95775.09;1828776;77;21621;-60
2021/03/02 09:32:38;;;;;;;;;;;;;;;7.95;57.55;95774.36;1823230;77;21642;-58
2021/03/02 09:35:10;;;;;;;23.10;16.52;;;;;;;8.25;56.02;95774.47;1835514;77;20282;-58
2021/03/02 09:37:39;;;;;;;25.25;18.80;;;;;;;8.42;54.33;95770.77;1795789;77;21170;-56
2021/03/02 09:40:11;;;;;;;41.68;23.47;;;;;;;8.55;55.25;95768.28;1832706;77;21603;-54
2021/03/02 09:42:41;;;;;;;43.58;24.15;;;;;;;8.81;55.19;95772.47;1835312;77;21114;-55
2021/03/02 09:45:16;;;;;;;30.45;20.85;;;;;;;9.11;54.79;95769.73;1824202;76;21354;-57
2021/03/02 09:47:46;;;;;;;23.42;16.12;;;;;;;9.42;54.09;95769.91;1817613;77;22125;-55
2021/03/02 09:50:17;;;;;;;18.70;15.05;;;;;;;10.23;50.31;95769.39;1756793;81;21258;-54
2021/03/02 09:52:47;;;;;;;11.53;9.25;;;;;;;10.23;50.31;95769.39;1809748;77;21699;-55
2021/03/02 09:55:25;;;;;;;11.50;8.90;;;;;;;10.51;46.98;95759.26;1822979;77;21210;-55
2021/03/02 09:58:13;;;;;;;9.68;5.75;;;;;;;10.77;45.98;95758.52;1831888;77;21290;-58
2021/03/02 10:00:49;;;;;;;7.25;5.33;;;;;;;11.10;45.21;95766.30;1848193;77;21144;-57
2021/03/02 10:03:29;;;;;;;9.00;4.97;;;;;;;11.55;43.53;95759.77;1835653;76;21169;-57
2021/03/02 10:06:00;;;;;;;6.37;4.78;;;;;;;12.11;42.19;95763.20;1830001;76;21202;-55
2021/03/02 10:08:38;;;;;;;6.12;3.90;;;;;;;12.68;40.00;95756.54;1842929;77;21187;-61
2021/03/02 10:11:16;;;;;;;7.92;4.60;;;;;;;13.06;39.49;95751.19;1804113;77;21599;-56
2021/03/02 10:13:59;;;;;;;6.37;4.62;;;;;;;13.50;38.95;95751.62;1796807;77;21614;-57
2021/03/02 10:16:48;;;;;;;8.98;4.28;;;;;;;13.90;38.40;95753.52;1841410;77;21210;-58
2021/03/02 10:19:19;;;;;;;11.85;5.15;;;;;;;14.17;37.82;95745.53;1838552;77;21639;-56
2021/03/02 10:24:39;;;;;;;7.10;4.87;;;;;;;14.86;36.43;95747.09;1848727;75;27898;-60
2021/03/02 10:27:17;;;;;;;4.37;3.40;;;;;;;15.29;36.22;95743.72;1828226;77;21163;-56
2021/03/02 10:29:47;;;;;;;7.12;4.08;;;;;;;15.75;34.93;95731.61;1818775;77;21249;-55
2021/03/02 10:32:16;;;;;;;17.98;4.53;;;;;;;16.15;34.04;95735.16;1816174;77;21135;-57
2021/03/02 10:34:45;;;;;;;6.85;3.25;;;;;;;16.23;33.40;95725.30;1820258;77;21099;-56
2021/03/02 10:37:14;;;;;;;5.58;3.83;;;;;;;16.33;33.61;95722.08;1819175;77;21158;-55
2021/03/02 10:39:45;;;;;;;6.12;3.98;;;;;;;16.43;32.96;95715.94;1826606;76;21248;-55
2021/03/02 10:42:16;;;;;;;6.45;3.60;;;;;;;16.57;33.50;95716.10;1829889;76;22672;-57
2021/03/02 10:44:44;;;;;;;9.98;4.75;;;;;;;16.76;33.19;95701.61;1819266;77;21151;-57
2021/03/02 10:47:13;;;;;;;4.60;3.80;;;;;;;16.96;32.99;95702.69;1820899;77;21139;-55
2021/03/02 10:49:42;;;;;;;4.75;3.20;;;;;;;17.10;32.97;95697.86;1820925;78;21048;-54
2021/03/02 10:52:10;;;;;;;6.37;3.17;;;;;;;17.28;32.42;95699.21;1815951;77;21263;-54
2021/03/02 10:54:40;;;;;;;12.13;4.00;;;;;;;17.65;32.41;95691.56;1833549;77;21183;-56
2021/03/02 10:57:09;;;;;;;7.45;4.08;;;;;;;18.07;32.29;95682.54;1824157;77;21563;-55
2021/03/02 10:59:37;;;;;;;6.20;4.22;;;;;;;18.47;31.59;95680.28;1820552;77;21698;-53
2021/03/02 11:02:06;;;;;;;5.45;4.00;;;;;;;18.98;30.98;95675.86;1828425;77;21248;-57
2021/03/02 11:04:34;;;;;;;9.90;3.77;;;;;;;19.50;31.35;95673.00;1836995;77;21450;-53
2021/03/02 11:07:03;;;;;;;6.37;3.87;;;;;;;19.98;30.57;95667.91;1843634;77;22285;-56
2021/03/02 11:09:31;;;;;;;5.62;4.00;;;;;;;20.47;28.95;95667.23;1848242;77;21342;-56
2021/03/02 11:12:00;;;;;;;7.70;3.42;;;;;;;20.61;29.23;95658.00;1821823;77;21556;-55
2021/03/02 11:14:29;;;;;;;18.65;6.33;;;;;;;20.79;28.96;95659.89;1815104;79;21697;-59
2021/03/02 11:16:57;;;;;;;10.15;4.53;;;;;;;20.96;29.15;95660.09;1815319;79;21178;-56
2021/03/02 11:19:26;;;;;;;20.72;5.70;;;;;;;21.00;28.54;95656.45;1815269;79;22272;-56
2021/03/02 11:21:55;;;;;;;22.17;10.20;;;;;;;21.09;28.67;95655.66;1815618;79;21181;-56
2021/03/02 11:24:24;;;;;;;6.35;4.05;;;;;;;21.34;27.70;95654.12;1811547;77;21173;-54
2021/03/02 11:26:52;;;;;;;12.50;4.25;;;;;;;21.21;27.37;95648.13;1810496;79;21135;-55
2021/03/02 11:29:21;;;;;;;27.73;4.22;;;;;;;20.83;28.32;95640.89;1810513;79;21104;-56
2021/03/02 11:31:50;;;;;;;7.47;3.58;;;;;;;20.71;28.22;95640.59;1810564;79;21415;-56
2021/03/02 11:34:21;;;;;;;13.90;3.22;;;;;;;20.56;28.65;95644.73;1810290;79;21143;-56
2021/03/02 11:36:50;;;;;;;9.90;4.00;;;;;;;20.28;28.82;95645.00;1810134;79;21143;-56
2021/03/02 11:39:18;;;;;;;5.47;2.80;;;;;;;20.20;28.87;95642.49;1810033;79;21186;-56
2021/03/02 11:41:47;;;;;;;10.03;3.47;;;;;;;20.24;28.84;95636.06;1810079;79;21119;-58
2021/03/02 11:44:15;;;;;;;8.88;2.90;;;;;;;20.32;28.99;95635.77;1812766;77;21192;-54
2021/03/02 11:46:44;;;;;;;6.00;3.17;;;;;;;20.46;29.02;95630.12;1827877;77;21492;-56
2021/03/02 11:49:13;;;;;;;5.85;3.00;;;;;;;20.65;28.64;95634.17;1843333;77;21103;-56